sensor_id;sensor_type;location;lat;lon;timestamp;P1;durP1;ratioP1;P2;durP2;ratioP2
18905;SDS011;9585;51.018;4.282;2023-03-01T00:01:00;6.77;;;5.13;;
18905;SDS011;9585;51.018;4.282;2023-03-01T00:03:30;5.93;;;5.27;;
18905;SDS011;9585;51.018;4.282;2023-03-01T00:05:58;5.27;;;4.77;;
18905;SDS011;9585;51.018;4.282;2023-03-01T00:08:26;6.70;;;5.60;;
18905;SDS011;9585;51.018;4.282;2023-03-01T00:11:01;7.90;;;5.97;;
18905;SDS011;9585;51.018;4.282;2023-03-01T00:13:31;6.37;;;5.30;;
18905;SDS011;9585;51.018;4.282;2023-03-01T00:15:58;7.87;;;5.43;;
18905;SDS011;9585;51.018;4.282;2023-03-01T00:18:27;5.17;;;4.67;;
18905;SDS011;9585;51.018;4.282;2023-03-01T00:20:56;6.37;;;4.93;;
18905;SDS011;9585;51.018;4.282;2023-03-01T00:23:24;5.83;;;5.07;;
18905;SDS011;9585;51.018;4.282;2023-03-01T00:25:52;5.70;;;4.87;;
18905;SDS011;9585;51.018;4.282;2023-03-01T00:28:20;6.27;;;5.03;;
18905;SDS011;9585;51.018;4.282;2023-03-01T00:30:48;4.80;;;4.30;;
18905;SDS011;9585;51.018;4.282;2023-03-01T00:33:16;6.43;;;4.67;;
18905;SDS011;9585;51.018;4.282;2023-03-01T00:35:45;5.53;;;4.63;;
18905;SDS011;9585;51.018;4.282;2023-03-01T00:38:12;6.10;;;4.70;;
18905;SDS011;9585;51.018;4.282;2023-03-01T00:40:39;6.50;;;5.13;;
18905;SDS011;9585;51.018;4.282;2023-03-01T00:43:07;5.87;;;5.03;;
18905;SDS011;9585;51.018;4.282;2023-03-01T00:45:35;5.97;;;4.83;;
18905;SDS011;9585;51.018;4.282;2023-03-01T00:48:03;6.37;;;5.47;;
18905;SDS011;9585;51.018;4.282;2023-03-01T00:50:30;5.50;;;4.50;;
18905;SDS011;9585;51.018;4.282;2023-03-01T00:53:00;5.20;;;4.70;;
18905;SDS011;9585;51.018;4.282;2023-03-01T00:55:30;6.80;;;5.60;;
18905;SDS011;9585;51.018;4.282;2023-03-01T00:57:57;6.80;;;6.03;;
18905;SDS011;9585;51.018;4.282;2023-03-01T01:00:25;7.00;;;5.90;;
18905;SDS011;9585;51.018;4.282;2023-03-01T01:02:52;7.60;;;5.80;;
18905;SDS011;9585;51.018;4.282;2023-03-01T01:05:20;6.10;;;5.50;;
18905;SDS011;9585;51.018;4.282;2023-03-01T01:07:47;6.80;;;5.13;;
18905;SDS011;9585;51.018;4.282;2023-03-01T01:10:17;7.10;;;5.20;;
18905;SDS011;9585;51.018;4.282;2023-03-01T01:12:45;6.53;;;5.33;;
18905;SDS011;9585;51.018;4.282;2023-03-01T01:15:16;6.90;;;5.73;;
18905;SDS011;9585;51.018;4.282;2023-03-01T01:17:57;7.17;;;6.10;;
18905;SDS011;9585;51.018;4.282;2023-03-01T01:20:42;7.10;;;5.80;;
18905;SDS011;9585;51.018;4.282;2023-03-01T01:23:13;6.27;;;4.90;;
18905;SDS011;9585;51.018;4.282;2023-03-01T01:26:10;5.83;;;5.10;;
18905;SDS011;9585;51.018;4.282;2023-03-01T01:28:54;6.03;;;4.77;;
18905;SDS011;9585;51.018;4.282;2023-03-01T01:31:24;8.07;;;5.50;;
18905;SDS011;9585;51.018;4.282;2023-03-01T01:33:54;6.17;;;5.20;;
18905;SDS011;9585;51.018;4.282;2023-03-01T01:36:24;5.67;;;5.07;;
18905;SDS011;9585;51.018;4.282;2023-03-01T01:38:54;5.53;;;4.90;;
18905;SDS011;9585;51.018;4.282;2023-03-01T01:41:24;6.13;;;4.97;;
18905;SDS011;9585;51.018;4.282;2023-03-01T01:46:40;7.20;;;5.77;;
18905;SDS011;9585;51.018;4.282;2023-03-01T01:49:16;8.10;;;6.40;;
18905;SDS011;9585;51.018;4.282;2023-03-01T01:54:27;6.60;;;5.50;;
18905;SDS011;9585;51.018;4.282;2023-03-01T02:00:51;6.20;;;5.23;;
18905;SDS011;9585;51.018;4.282;2023-03-01T02:04:10;5.83;;;4.97;;
18905;SDS011;9585;51.018;4.282;2023-03-01T02:06:58;5.77;;;5.20;;
18905;SDS011;9585;51.018;4.282;2023-03-01T03:08:55;6.87;;;5.37;;
18905;SDS011;9585;51.018;4.282;2023-03-01T03:51:15;7.93;;;6.60;;
18905;SDS011;9585;51.018;4.282;2023-03-01T03:57:19;8.43;;;6.50;;
18905;SDS011;9585;51.018;4.282;2023-03-01T04:00:21;7.77;;;6.43;;
18905;SDS011;9585;51.018;4.282;2023-03-01T04:15:45;7.50;;;6.10;;
18905;SDS011;9585;51.018;4.282;2023-03-01T04:18:47;6.80;;;5.60;;
18905;SDS011;9585;51.018;4.282;2023-03-01T04:28:16;9.13;;;6.37;;
18905;SDS011;9585;51.018;4.282;2023-03-01T04:34:54;9.37;;;6.63;;
18905;SDS011;9585;51.018;4.282;2023-03-01T04:37:22;7.43;;;6.57;;
18905;SDS011;9585;51.018;4.282;2023-03-01T04:40:19;9.10;;;5.60;;
18905;SDS011;9585;51.018;4.282;2023-03-01T04:42:55;8.07;;;6.50;;
18905;SDS011;9585;51.018;4.282;2023-03-01T04:45:32;7.10;;;5.80;;
18905;SDS011;9585;51.018;4.282;2023-03-01T04:48:18;10.60;;;6.43;;
18905;SDS011;9585;51.018;4.282;2023-03-01T04:50:50;8.83;;;6.07;;
18905;SDS011;9585;51.018;4.282;2023-03-01T04:53:38;10.03;;;5.87;;
18905;SDS011;9585;51.018;4.282;2023-03-01T04:59:53;7.07;;;6.20;;
18905;SDS011;9585;51.018;4.282;2023-03-01T05:02:23;8.53;;;6.47;;
18905;SDS011;9585;51.018;4.282;2023-03-01T05:04:50;8.30;;;6.20;;
18905;SDS011;9585;51.018;4.282;2023-03-01T05:07:24;8.03;;;6.10;;
18905;SDS011;9585;51.018;4.282;2023-03-01T05:09:56;7.60;;;5.90;;
18905;SDS011;9585;51.018;4.282;2023-03-01T05:12:24;7.83;;;6.13;;
18905;SDS011;9585;51.018;4.282;2023-03-01T05:14:58;7.30;;;6.07;;
18905;SDS011;9585;51.018;4.282;2023-03-01T05:17:25;8.40;;;5.83;;
18905;SDS011;9585;51.018;4.282;2023-03-01T05:19:58;8.60;;;5.80;;
18905;SDS011;9585;51.018;4.282;2023-03-01T05:22:28;9.43;;;6.10;;
18905;SDS011;9585;51.018;4.282;2023-03-01T05:27:44;7.63;;;6.33;;
18905;SDS011;9585;51.018;4.282;2023-03-01T05:30:14;8.53;;;6.63;;
18905;SDS011;9585;51.018;4.282;2023-03-01T05:36:15;7.03;;;5.60;;
18905;SDS011;9585;51.018;4.282;2023-03-01T05:39:02;8.40;;;6.30;;
18905;SDS011;9585;51.018;4.282;2023-03-01T05:41:46;7.67;;;6.43;;
18905;SDS011;9585;51.018;4.282;2023-03-01T05:44:53;7.77;;;5.87;;
18905;SDS011;9585;51.018;4.282;2023-03-01T05:53:21;7.30;;;5.80;;
18905;SDS011;9585;51.018;4.282;2023-03-01T05:59:30;8.40;;;5.73;;
18905;SDS011;9585;51.018;4.282;2023-03-01T06:01:58;8.17;;;5.87;;
18905;SDS011;9585;51.018;4.282;2023-03-01T06:04:25;8.60;;;6.23;;
18905;SDS011;9585;51.018;4.282;2023-03-01T06:06:54;9.57;;;6.10;;
18905;SDS011;9585;51.018;4.282;2023-03-01T06:09:22;8.93;;;6.40;;
18905;SDS011;9585;51.018;4.282;2023-03-01T06:11:54;8.53;;;6.40;;
18905;SDS011;9585;51.018;4.282;2023-03-01T06:14:25;8.87;;;6.00;;
18905;SDS011;9585;51.018;4.282;2023-03-01T06:16:53;7.60;;;6.03;;
18905;SDS011;9585;51.018;4.282;2023-03-01T06:19:20;7.27;;;6.30;;
18905;SDS011;9585;51.018;4.282;2023-03-01T06:21:51;9.17;;;6.33;;
18905;SDS011;9585;51.018;4.282;2023-03-01T06:24:19;9.33;;;6.37;;
18905;SDS011;9585;51.018;4.282;2023-03-01T06:26:46;7.77;;;6.13;;
18905;SDS011;9585;51.018;4.282;2023-03-01T06:29:15;8.77;;;6.67;;
18905;SDS011;9585;51.018;4.282;2023-03-01T06:31:45;8.87;;;6.53;;
18905;SDS011;9585;51.018;4.282;2023-03-01T06:34:12;9.33;;;6.87;;
18905;SDS011;9585;51.018;4.282;2023-03-01T06:36:40;8.80;;;6.30;;
18905;SDS011;9585;51.018;4.282;2023-03-01T06:49:50;9.10;;;6.50;;
18905;SDS011;9585;51.018;4.282;2023-03-01T06:52:55;10.27;;;7.17;;
18905;SDS011;9585;51.018;4.282;2023-03-01T06:55:25;7.97;;;6.27;;
18905;SDS011;9585;51.018;4.282;2023-03-01T06:58:23;9.27;;;6.57;;
18905;SDS011;9585;51.018;4.282;2023-03-01T07:00:53;7.47;;;5.73;;
18905;SDS011;9585;51.018;4.282;2023-03-01T07:03:26;7.57;;;6.50;;
18905;SDS011;9585;51.018;4.282;2023-03-01T07:06:01;7.37;;;5.60;;
18905;SDS011;9585;51.018;4.282;2023-03-01T07:11:54;8.03;;;5.50;;
18905;SDS011;9585;51.018;4.282;2023-03-01T07:14:37;7.87;;;5.50;;
18905;SDS011;9585;51.018;4.282;2023-03-01T07:19:42;8.80;;;5.90;;
18905;SDS011;9585;51.018;4.282;2023-03-01T07:22:11;8.47;;;5.87;;
18905;SDS011;9585;51.018;4.282;2023-03-01T07:24:39;8.93;;;5.90;;
18905;SDS011;9585;51.018;4.282;2023-03-01T07:27:17;6.50;;;5.10;;
18905;SDS011;9585;51.018;4.282;2023-03-01T07:29:45;7.53;;;5.47;;
18905;SDS011;9585;51.018;4.282;2023-03-01T07:32:13;6.80;;;5.35;;
18905;SDS011;9585;51.018;4.282;2023-03-01T07:34:40;6.82;;;5.78;;
18905;SDS011;9585;51.018;4.282;2023-03-01T07:37:07;6.35;;;5.30;;
18905;SDS011;9585;51.018;4.282;2023-03-01T07:39:36;8.20;;;5.68;;
18905;SDS011;9585;51.018;4.282;2023-03-01T07:42:06;7.30;;;5.75;;
18905;SDS011;9585;51.018;4.282;2023-03-01T07:44:38;7.43;;;5.88;;
18905;SDS011;9585;51.018;4.282;2023-03-01T07:47:06;12.65;;;5.50;;
18905;SDS011;9585;51.018;4.282;2023-03-01T07:49:33;8.02;;;5.47;;
18905;SDS011;9585;51.018;4.282;2023-03-01T07:52:01;7.30;;;5.10;;
18905;SDS011;9585;51.018;4.282;2023-03-01T07:54:28;7.10;;;5.38;;
18905;SDS011;9585;51.018;4.282;2023-03-01T07:56:57;6.70;;;5.20;;
18905;SDS011;9585;51.018;4.282;2023-03-01T07:59:25;7.13;;;5.50;;
18905;SDS011;9585;51.018;4.282;2023-03-01T08:01:54;7.20;;;5.72;;
18905;SDS011;9585;51.018;4.282;2023-03-01T08:04:21;7.63;;;5.40;;
18905;SDS011;9585;51.018;4.282;2023-03-01T08:06:50;8.00;;;5.88;;
18905;SDS011;9585;51.018;4.282;2023-03-01T08:09:17;9.93;;;5.60;;
18905;SDS011;9585;51.018;4.282;2023-03-01T08:11:49;7.40;;;5.80;;
18905;SDS011;9585;51.018;4.282;2023-03-01T08:14:18;9.18;;;5.50;;
18905;SDS011;9585;51.018;4.282;2023-03-01T08:16:48;7.25;;;5.97;;
18905;SDS011;9585;51.018;4.282;2023-03-01T08:19:16;7.13;;;5.75;;
18905;SDS011;9585;51.018;4.282;2023-03-01T08:21:44;7.63;;;5.68;;
18905;SDS011;9585;51.018;4.282;2023-03-01T08:24:11;7.85;;;5.63;;
18905;SDS011;9585;51.018;4.282;2023-03-01T08:26:39;7.47;;;6.00;;
18905;SDS011;9585;51.018;4.282;2023-03-01T08:29:06;9.32;;;5.57;;
18905;SDS011;9585;51.018;4.282;2023-03-01T08:31:36;9.70;;;5.78;;
18905;SDS011;9585;51.018;4.282;2023-03-01T08:34:05;7.13;;;5.78;;
18905;SDS011;9585;51.018;4.282;2023-03-01T08:36:34;8.25;;;5.78;;
18905;SDS011;9585;51.018;4.282;2023-03-01T08:39:03;7.40;;;6.20;;
18905;SDS011;9585;51.018;4.282;2023-03-01T08:41:31;8.57;;;6.03;;
18905;SDS011;9585;51.018;4.282;2023-03-01T08:43:58;7.20;;;6.32;;
18905;SDS011;9585;51.018;4.282;2023-03-01T08:46:26;6.72;;;6.03;;
18905;SDS011;9585;51.018;4.282;2023-03-01T08:48:55;8.80;;;6.05;;
18905;SDS011;9585;51.018;4.282;2023-03-01T08:51:23;9.25;;;6.90;;
18905;SDS011;9585;51.018;4.282;2023-03-01T08:53:52;7.68;;;6.68;;
18905;SDS011;9585;51.018;4.282;2023-03-01T08:56:19;8.60;;;6.60;;
18905;SDS011;9585;51.018;4.282;2023-03-01T08:58:47;9.90;;;6.80;;
18905;SDS011;9585;51.018;4.282;2023-03-01T09:01:15;9.45;;;7.05;;
18905;SDS011;9585;51.018;4.282;2023-03-01T09:03:45;9.17;;;6.70;;
18905;SDS011;9585;51.018;4.282;2023-03-01T09:06:14;9.18;;;6.50;;
18905;SDS011;9585;51.018;4.282;2023-03-01T09:08:42;10.90;;;6.80;;
18905;SDS011;9585;51.018;4.282;2023-03-01T09:11:12;7.95;;;6.57;;
18905;SDS011;9585;51.018;4.282;2023-03-01T09:13:42;7.90;;;6.60;;
18905;SDS011;9585;51.018;4.282;2023-03-01T09:16:11;8.67;;;6.97;;
18905;SDS011;9585;51.018;4.282;2023-03-01T09:18:39;7.23;;;6.43;;
18905;SDS011;9585;51.018;4.282;2023-03-01T09:21:07;7.50;;;6.63;;
18905;SDS011;9585;51.018;4.282;2023-03-01T09:23:38;9.23;;;6.70;;
18905;SDS011;9585;51.018;4.282;2023-03-01T09:26:07;7.87;;;6.93;;
18905;SDS011;9585;51.018;4.282;2023-03-01T09:28:35;9.57;;;7.20;;
18905;SDS011;9585;51.018;4.282;2023-03-01T09:31:03;8.43;;;6.77;;
18905;SDS011;9585;51.018;4.282;2023-03-01T09:33:31;8.30;;;6.67;;
18905;SDS011;9585;51.018;4.282;2023-03-01T09:36:00;7.90;;;6.43;;
18905;SDS011;9585;51.018;4.282;2023-03-01T09:38:29;8.00;;;6.35;;
18905;SDS011;9585;51.018;4.282;2023-03-01T09:40:58;8.87;;;6.40;;
18905;SDS011;9585;51.018;4.282;2023-03-01T09:43:28;8.83;;;7.13;;
18905;SDS011;9585;51.018;4.282;2023-03-01T09:46:03;12.65;;;6.97;;
18905;SDS011;9585;51.018;4.282;2023-03-01T09:48:33;9.30;;;7.00;;
18905;SDS011;9585;51.018;4.282;2023-03-01T09:51:06;8.97;;;6.43;;
18905;SDS011;9585;51.018;4.282;2023-03-01T09:53:52;8.00;;;6.22;;
18905;SDS011;9585;51.018;4.282;2023-03-01T09:56:24;7.63;;;6.33;;
18905;SDS011;9585;51.018;4.282;2023-03-01T09:59:02;9.32;;;7.00;;
18905;SDS011;9585;51.018;4.282;2023-03-01T10:01:43;9.90;;;6.70;;
18905;SDS011;9585;51.018;4.282;2023-03-01T10:04:24;7.13;;;6.15;;
18905;SDS011;9585;51.018;4.282;2023-03-01T10:07:01;10.85;;;6.18;;
18905;SDS011;9585;51.018;4.282;2023-03-01T10:09:40;8.35;;;6.28;;
18905;SDS011;9585;51.018;4.282;2023-03-01T10:12:11;7.88;;;5.88;;
18905;SDS011;9585;51.018;4.282;2023-03-01T10:14:42;7.72;;;5.88;;
18905;SDS011;9585;51.018;4.282;2023-03-01T10:17:19;9.80;;;6.70;;
18905;SDS011;9585;51.018;4.282;2023-03-01T10:19:54;7.70;;;6.50;;
18905;SDS011;9585;51.018;4.282;2023-03-01T10:22:25;9.02;;;6.10;;
18905;SDS011;9585;51.018;4.282;2023-03-01T10:24:55;8.75;;;6.60;;
18905;SDS011;9585;51.018;4.282;2023-03-01T10:27:29;7.82;;;6.57;;
18905;SDS011;9585;51.018;4.282;2023-03-01T10:30:07;9.40;;;6.60;;
18905;SDS011;9585;51.018;4.282;2023-03-01T10:32:41;6.85;;;5.78;;
18905;SDS011;9585;51.018;4.282;2023-03-01T10:35:16;11.32;;;6.85;;
18905;SDS011;9585;51.018;4.282;2023-03-01T10:38:02;8.25;;;6.43;;
18905;SDS011;9585;51.018;4.282;2023-03-01T10:40:32;7.63;;;6.20;;
18905;SDS011;9585;51.018;4.282;2023-03-01T10:43:03;7.85;;;6.22;;
18905;SDS011;9585;51.018;4.282;2023-03-01T10:45:34;7.78;;;6.43;;
18905;SDS011;9585;51.018;4.282;2023-03-01T10:48:04;8.20;;;6.70;;
18905;SDS011;9585;51.018;4.282;2023-03-01T10:50:37;8.23;;;6.30;;
18905;SDS011;9585;51.018;4.282;2023-03-01T10:53:10;8.20;;;6.40;;
18905;SDS011;9585;51.018;4.282;2023-03-01T10:55:59;8.48;;;6.63;;
18905;SDS011;9585;51.018;4.282;2023-03-01T10:58:33;9.65;;;6.60;;
18905;SDS011;9585;51.018;4.282;2023-03-01T11:01:02;7.72;;;6.13;;
18905;SDS011;9585;51.018;4.282;2023-03-01T11:03:32;8.32;;;6.13;;
18905;SDS011;9585;51.018;4.282;2023-03-01T11:06:02;7.65;;;6.25;;
18905;SDS011;9585;51.018;4.282;2023-03-01T11:08:33;7.97;;;6.97;;
18905;SDS011;9585;51.018;4.282;2023-03-01T11:13:58;10.70;;;6.65;;
18905;SDS011;9585;51.018;4.282;2023-03-01T11:16:33;8.50;;;6.43;;
18905;SDS011;9585;51.018;4.282;2023-03-01T11:21:52;12.95;;;6.47;;
18905;SDS011;9585;51.018;4.282;2023-03-01T11:24:24;6.80;;;6.03;;
18905;SDS011;9585;51.018;4.282;2023-03-01T11:26:59;8.73;;;6.07;;
18905;SDS011;9585;51.018;4.282;2023-03-01T11:29:34;7.65;;;6.72;;
18905;SDS011;9585;51.018;4.282;2023-03-01T11:32:06;6.63;;;5.90;;
18905;SDS011;9585;51.018;4.282;2023-03-01T11:34:38;7.93;;;6.40;;
18905;SDS011;9585;51.018;4.282;2023-03-01T11:37:21;10.98;;;6.25;;
18905;SDS011;9585;51.018;4.282;2023-03-01T11:40:12;7.82;;;6.50;;
18905;SDS011;9585;51.018;4.282;2023-03-01T11:42:52;8.32;;;6.05;;
18905;SDS011;9585;51.018;4.282;2023-03-01T11:45:30;8.07;;;6.22;;
18905;SDS011;9585;51.018;4.282;2023-03-01T11:48:09;7.47;;;5.97;;
18905;SDS011;9585;51.018;4.282;2023-03-01T11:50:48;7.47;;;5.95;;
18905;SDS011;9585;51.018;4.282;2023-03-01T11:53:25;7.93;;;5.88;;
18905;SDS011;9585;51.018;4.282;2023-03-01T11:56:03;7.32;;;5.88;;
18905;SDS011;9585;51.018;4.282;2023-03-01T11:58:43;6.70;;;5.72;;
18905;SDS011;9585;51.018;4.282;2023-03-01T12:01:32;7.43;;;5.72;;
18905;SDS011;9585;51.018;4.282;2023-03-01T12:07:01;8.02;;;5.47;;
18905;SDS011;9585;51.018;4.282;2023-03-01T12:09:46;7.10;;;5.80;;
18905;SDS011;9585;51.018;4.282;2023-03-01T12:12:27;7.05;;;5.60;;
18905;SDS011;9585;51.018;4.282;2023-03-01T12:20:58;6.90;;;6.13;;
18905;SDS011;9585;51.018;4.282;2023-03-01T12:23:39;10.15;;;6.18;;
18905;SDS011;9585;51.018;4.282;2023-03-01T12:26:33;8.55;;;5.72;;
18905;SDS011;9585;51.018;4.282;2023-03-01T12:29:08;6.57;;;5.80;;
18905;SDS011;9585;51.018;4.282;2023-03-01T12:32:03;6.95;;;6.03;;
18905;SDS011;9585;51.018;4.282;2023-03-01T12:34:53;8.30;;;5.80;;
18905;SDS011;9585;51.018;4.282;2023-03-01T12:37:30;7.70;;;5.55;;
18905;SDS011;9585;51.018;4.282;2023-03-01T12:40:09;7.15;;;5.90;;
18905;SDS011;9585;51.018;4.282;2023-03-01T12:43:01;7.78;;;5.30;;
18905;SDS011;9585;51.018;4.282;2023-03-01T12:45:54;6.55;;;5.50;;
18905;SDS011;9585;51.018;4.282;2023-03-01T12:48:39;8.52;;;5.43;;
18905;SDS011;9585;51.018;4.282;2023-03-01T12:51:14;8.05;;;5.75;;
18905;SDS011;9585;51.018;4.282;2023-03-01T12:53:44;8.20;;;5.65;;
18905;SDS011;9585;51.018;4.282;2023-03-01T12:56:14;9.02;;;6.30;;
18905;SDS011;9585;51.018;4.282;2023-03-01T12:58:48;8.15;;;5.70;;
18905;SDS011;9585;51.018;4.282;2023-03-01T13:01:28;6.07;;;5.07;;
18905;SDS011;9585;51.018;4.282;2023-03-01T13:04:04;6.13;;;5.53;;
18905;SDS011;9585;51.018;4.282;2023-03-01T13:06:47;6.13;;;5.53;;
18905;SDS011;9585;51.018;4.282;2023-03-01T13:09:23;6.13;;;5.53;;
18905;SDS011;9585;51.018;4.282;2023-03-01T13:11:57;5.93;;;5.22;;
18905;SDS011;9585;51.018;4.282;2023-03-01T13:14:43;7.00;;;5.72;;
18905;SDS011;9585;51.018;4.282;2023-03-01T13:17:29;6.50;;;5.00;;
18905;SDS011;9585;51.018;4.282;2023-03-01T13:19:58;7.20;;;5.35;;
18905;SDS011;9585;51.018;4.282;2023-03-01T13:22:28;7.80;;;5.97;;
18905;SDS011;9585;51.018;4.282;2023-03-01T13:25:02;7.95;;;6.43;;
18905;SDS011;9585;51.018;4.282;2023-03-01T13:27:45;6.75;;;5.30;;
18905;SDS011;9585;51.018;4.282;2023-03-01T13:36:01;8.45;;;6.07;;
18905;SDS011;9585;51.018;4.282;2023-03-01T13:38:44;6.78;;;5.50;;
18905;SDS011;9585;51.018;4.282;2023-03-01T13:41:13;8.98;;;5.78;;
18905;SDS011;9585;51.018;4.282;2023-03-01T13:43:41;8.30;;;6.10;;
18905;SDS011;9585;51.018;4.282;2023-03-01T13:46:11;9.57;;;6.55;;
18905;SDS011;9585;51.018;4.282;2023-03-01T13:48:45;8.40;;;6.00;;
18905;SDS011;9585;51.018;4.282;2023-03-01T13:51:16;6.97;;;5.70;;
18905;SDS011;9585;51.018;4.282;2023-03-01T13:53:51;6.35;;;5.35;;
18905;SDS011;9585;51.018;4.282;2023-03-01T13:56:21;7.93;;;5.72;;
18905;SDS011;9585;51.018;4.282;2023-03-01T13:58:53;6.85;;;5.72;;
18905;SDS011;9585;51.018;4.282;2023-03-01T14:01:26;7.30;;;5.38;;
18905;SDS011;9585;51.018;4.282;2023-03-01T14:03:55;7.60;;;5.47;;
18905;SDS011;9585;51.018;4.282;2023-03-01T14:06:23;6.90;;;5.45;;
18905;SDS011;9585;51.018;4.282;2023-03-01T14:09:03;6.68;;;5.97;;
18905;SDS011;9585;51.018;4.282;2023-03-01T14:14:44;8.30;;;5.65;;
18905;SDS011;9585;51.018;4.282;2023-03-01T14:17:27;7.55;;;5.80;;
18905;SDS011;9585;51.018;4.282;2023-03-01T14:20:09;5.88;;;5.28;;
18905;SDS011;9585;51.018;4.282;2023-03-01T14:22:41;6.90;;;5.72;;
18905;SDS011;9585;51.018;4.282;2023-03-01T14:25:24;6.93;;;5.22;;
18905;SDS011;9585;51.018;4.282;2023-03-01T14:27:56;7.70;;;5.68;;
18905;SDS011;9585;51.018;4.282;2023-03-01T14:30:31;6.57;;;5.60;;
18905;SDS011;9585;51.018;4.282;2023-03-01T14:33:05;9.05;;;5.72;;
18905;SDS011;9585;51.018;4.282;2023-03-01T14:35:51;8.15;;;5.40;;
18905;SDS011;9585;51.018;4.282;2023-03-01T14:38:20;6.10;;;5.07;;
18905;SDS011;9585;51.018;4.282;2023-03-01T14:40:51;7.55;;;5.72;;
18905;SDS011;9585;51.018;4.282;2023-03-01T14:43:23;6.38;;;5.30;;
18905;SDS011;9585;51.018;4.282;2023-03-01T14:45:52;6.38;;;5.45;;
18905;SDS011;9585;51.018;4.282;2023-03-01T14:48:19;7.70;;;5.40;;
18905;SDS011;9585;51.018;4.282;2023-03-01T14:50:46;7.00;;;5.22;;
18905;SDS011;9585;51.018;4.282;2023-03-01T14:53:16;5.57;;;4.97;;
18905;SDS011;9585;51.018;4.282;2023-03-01T14:55:46;8.00;;;5.15;;
18905;SDS011;9585;51.018;4.282;2023-03-01T14:58:20;6.18;;;5.47;;
18905;SDS011;9585;51.018;4.282;2023-03-01T15:00:50;8.70;;;5.63;;
18905;SDS011;9585;51.018;4.282;2023-03-01T15:03:24;7.40;;;5.68;;
18905;SDS011;9585;51.018;4.282;2023-03-01T15:05:56;6.47;;;5.32;;
18905;SDS011;9585;51.018;4.282;2023-03-01T15:08:24;8.63;;;5.72;;
18905;SDS011;9585;51.018;4.282;2023-03-01T15:11:02;8.15;;;6.00;;
18905;SDS011;9585;51.018;4.282;2023-03-01T15:13:32;6.50;;;5.50;;
18905;SDS011;9585;51.018;4.282;2023-03-01T15:16:02;6.82;;;5.43;;
18905;SDS011;9585;51.018;4.282;2023-03-01T15:18:33;7.78;;;5.63;;
18905;SDS011;9585;51.018;4.282;2023-03-01T15:21:06;7.97;;;5.85;;
18905;SDS011;9585;51.018;4.282;2023-03-01T15:23:35;8.20;;;5.70;;
18905;SDS011;9585;51.018;4.282;2023-03-01T15:26:04;7.55;;;5.65;;
18905;SDS011;9585;51.018;4.282;2023-03-01T15:28:34;6.75;;;5.65;;
18905;SDS011;9585;51.018;4.282;2023-03-01T15:31:07;8.43;;;6.10;;
18905;SDS011;9585;51.018;4.282;2023-03-01T15:33:44;10.75;;;6.13;;
18905;SDS011;9585;51.018;4.282;2023-03-01T15:36:31;7.03;;;5.97;;
18905;SDS011;9585;51.018;4.282;2023-03-01T15:39:05;7.25;;;6.15;;
18905;SDS011;9585;51.018;4.282;2023-03-01T15:41:58;9.38;;;6.05;;
18905;SDS011;9585;51.018;4.282;2023-03-01T15:44:28;7.88;;;6.25;;
18905;SDS011;9585;51.018;4.282;2023-03-01T15:46:56;7.68;;;5.75;;
18905;SDS011;9585;51.018;4.282;2023-03-01T15:49:34;7.88;;;6.18;;
18905;SDS011;9585;51.018;4.282;2023-03-01T15:52:05;7.88;;;5.97;;
18905;SDS011;9585;51.018;4.282;2023-03-01T15:54:38;6.07;;;5.47;;
18905;SDS011;9585;51.018;4.282;2023-03-01T15:57:08;6.90;;;5.50;;
18905;SDS011;9585;51.018;4.282;2023-03-01T15:59:41;8.30;;;5.88;;
18905;SDS011;9585;51.018;4.282;2023-03-01T16:02:09;6.82;;;5.30;;
18905;SDS011;9585;51.018;4.282;2023-03-01T16:04:37;6.53;;;5.55;;
18905;SDS011;9585;51.018;4.282;2023-03-01T16:07:05;6.90;;;5.43;;
18905;SDS011;9585;51.018;4.282;2023-03-01T16:09:32;9.73;;;6.13;;
18905;SDS011;9585;51.018;4.282;2023-03-01T16:11:59;6.57;;;5.88;;
18905;SDS011;9585;51.018;4.282;2023-03-01T16:14:27;6.20;;;5.47;;
18905;SDS011;9585;51.018;4.282;2023-03-01T16:16:56;7.82;;;5.72;;
18905;SDS011;9585;51.018;4.282;2023-03-01T16:19:23;7.40;;;5.82;;
18905;SDS011;9585;51.018;4.282;2023-03-01T16:21:50;7.35;;;5.88;;
18905;SDS011;9585;51.018;4.282;2023-03-01T16:24:18;7.03;;;5.88;;
18905;SDS011;9585;51.018;4.282;2023-03-01T16:26:45;7.88;;;5.82;;
18905;SDS011;9585;51.018;4.282;2023-03-01T16:29:13;7.70;;;6.18;;
18905;SDS011;9585;51.018;4.282;2023-03-01T16:31:41;7.60;;;5.88;;
18905;SDS011;9585;51.018;4.282;2023-03-01T16:34:10;7.70;;;5.95;;
18905;SDS011;9585;51.018;4.282;2023-03-01T16:36:37;7.32;;;5.40;;
18905;SDS011;9585;51.018;4.282;2023-03-01T16:39:12;7.43;;;5.65;;
18905;SDS011;9585;51.018;4.282;2023-03-01T16:41:40;7.72;;;5.75;;
18905;SDS011;9585;51.018;4.282;2023-03-01T16:44:08;8.05;;;5.93;;
18905;SDS011;9585;51.018;4.282;2023-03-01T16:46:42;6.97;;;5.65;;
18905;SDS011;9585;51.018;4.282;2023-03-01T16:49:11;8.90;;;6.20;;
18905;SDS011;9585;51.018;4.282;2023-03-01T16:51:38;6.63;;;5.68;;
18905;SDS011;9585;51.018;4.282;2023-03-01T16:54:06;9.27;;;6.30;;
18905;SDS011;9585;51.018;4.282;2023-03-01T16:56:36;7.25;;;5.85;;
18905;SDS011;9585;51.018;4.282;2023-03-01T16:59:05;8.02;;;6.20;;
18905;SDS011;9585;51.018;4.282;2023-03-01T17:01:32;7.95;;;6.03;;
18905;SDS011;9585;51.018;4.282;2023-03-01T17:04:02;7.63;;;5.93;;
18905;SDS011;9585;51.018;4.282;2023-03-01T17:06:31;7.82;;;6.25;;
18905;SDS011;9585;51.018;4.282;2023-03-01T17:08:59;6.80;;;6.07;;
18905;SDS011;9585;51.018;4.282;2023-03-01T17:11:27;6.88;;;6.18;;
18905;SDS011;9585;51.018;4.282;2023-03-01T17:13:54;8.32;;;6.93;;
18905;SDS011;9585;51.018;4.282;2023-03-01T17:16:26;7.45;;;6.07;;
18905;SDS011;9585;51.018;4.282;2023-03-01T17:18:54;8.55;;;6.90;;
18905;SDS011;9585;51.018;4.282;2023-03-01T17:21:21;9.13;;;7.03;;
18905;SDS011;9585;51.018;4.282;2023-03-01T17:23:54;8.05;;;6.55;;
18905;SDS011;9585;51.018;4.282;2023-03-01T17:26:23;8.23;;;6.68;;
18905;SDS011;9585;51.018;4.282;2023-03-01T17:28:54;7.90;;;6.60;;
18905;SDS011;9585;51.018;4.282;2023-03-01T17:31:23;7.43;;;6.63;;
18905;SDS011;9585;51.018;4.282;2023-03-01T17:33:51;7.50;;;6.70;;
18905;SDS011;9585;51.018;4.282;2023-03-01T17:36:18;9.18;;;6.97;;
18905;SDS011;9585;51.018;4.282;2023-03-01T17:38:53;9.25;;;7.05;;
18905;SDS011;9585;51.018;4.282;2023-03-01T17:41:24;9.25;;;6.65;;
18905;SDS011;9585;51.018;4.282;2023-03-01T17:43:56;7.72;;;6.43;;
18905;SDS011;9585;51.018;4.282;2023-03-01T17:46:26;8.13;;;6.45;;
18905;SDS011;9585;51.018;4.282;2023-03-01T17:48:58;8.13;;;6.50;;
18905;SDS011;9585;51.018;4.282;2023-03-01T17:51:39;7.78;;;6.80;;
18905;SDS011;9585;51.018;4.282;2023-03-01T17:54:11;8.95;;;6.90;;
18905;SDS011;9585;51.018;4.282;2023-03-01T17:56:40;8.55;;;6.22;;
18905;SDS011;9585;51.018;4.282;2023-03-01T17:59:16;9.35;;;6.97;;
18905;SDS011;9585;51.018;4.282;2023-03-01T18:01:44;9.32;;;6.82;;
18905;SDS011;9585;51.018;4.282;2023-03-01T18:04:24;8.77;;;6.65;;
18905;SDS011;9585;51.018;4.282;2023-03-01T18:06:54;7.75;;;6.32;;
18905;SDS011;9585;51.018;4.282;2023-03-01T18:09:25;10.27;;;6.90;;
18905;SDS011;9585;51.018;4.282;2023-03-01T18:11:55;8.52;;;7.32;;
18905;SDS011;9585;51.018;4.282;2023-03-01T18:14:23;11.18;;;7.65;;
18905;SDS011;9585;51.018;4.282;2023-03-01T18:16:58;9.80;;;7.50;;
18905;SDS011;9585;51.018;4.282;2023-03-01T18:19:26;8.82;;;7.30;;
18905;SDS011;9585;51.018;4.282;2023-03-01T18:22:02;11.73;;;8.00;;
18905;SDS011;9585;51.018;4.282;2023-03-01T18:24:38;8.70;;;7.55;;
18905;SDS011;9585;51.018;4.282;2023-03-01T18:27:10;10.63;;;7.80;;
18905;SDS011;9585;51.018;4.282;2023-03-01T18:29:40;12.57;;;8.18;;
18905;SDS011;9585;51.018;4.282;2023-03-01T18:32:14;10.15;;;7.55;;
18905;SDS011;9585;51.018;4.282;2023-03-01T18:34:41;8.77;;;7.28;;
18905;SDS011;9585;51.018;4.282;2023-03-01T18:37:09;9.63;;;7.70;;
18905;SDS011;9585;51.018;4.282;2023-03-01T18:42:28;9.50;;;7.55;;
18905;SDS011;9585;51.018;4.282;2023-03-01T18:45:12;8.18;;;6.60;;
18905;SDS011;9585;51.018;4.282;2023-03-01T18:47:41;10.10;;;7.73;;
18905;SDS011;9585;51.018;4.282;2023-03-01T18:50:09;9.77;;;7.70;;
18905;SDS011;9585;51.018;4.282;2023-03-01T18:52:40;9.65;;;7.30;;